createdAt,value
2023-03-11T00:00:56.612Z,42.01
2023-03-11T00:03:24.893Z,42.03
2023-03-11T00:05:56.297Z,41.59
2023-03-11T00:08:25.135Z,41.94
2023-03-11T00:10:55.535Z,42.11
2023-03-11T00:13:23.379Z,42.12
2023-03-11T00:15:56.010Z,41.97
2023-03-11T00:18:26.985Z,42.00
2023-03-11T00:20:55.394Z,42.15
2023-03-11T00:23:22.414Z,41.93
2023-03-11T00:25:49.539Z,42.08
2023-03-11T00:28:17.175Z,41.85
2023-03-11T00:30:46.185Z,41.96
2023-03-11T00:33:15.648Z,42.01
2023-03-11T00:35:44.069Z,41.86
2023-03-11T00:38:15.526Z,42.17
2023-03-11T00:40:43.627Z,42.18
2023-03-11T00:43:10.621Z,42.10
2023-03-11T00:45:37.759Z,42.10
2023-03-11T00:48:04.848Z,42.25
2023-03-11T00:50:35.049Z,42.29
2023-03-11T00:53:03.094Z,42.47
2023-03-11T00:55:32.450Z,42.20
2023-03-11T00:58:04.091Z,42.38
2023-03-11T01:00:38.661Z,42.31
2023-03-11T01:03:06.124Z,42.75
2023-03-11T01:05:35.008Z,42.61
2023-03-11T01:08:03.365Z,42.33
2023-03-11T01:10:35.677Z,42.78
2023-03-11T01:13:04.117Z,43.02
2023-03-11T01:15:34.401Z,43.05
2023-03-11T01:18:01.815Z,42.69
2023-03-11T01:20:28.846Z,42.68
2023-03-11T01:22:56.070Z,43.09
2023-03-11T01:25:24.130Z,43.26
2023-03-11T01:27:51.656Z,42.94
2023-03-11T01:30:21.639Z,43.44
2023-03-11T01:32:49.441Z,43.23
2023-03-11T01:35:18.167Z,43.29
2023-03-11T01:37:48.296Z,43.55
2023-03-11T01:40:24.371Z,43.66
2023-03-11T01:42:51.468Z,43.60
2023-03-11T01:45:43.431Z,43.78
2023-03-11T01:48:12.419Z,43.59
2023-03-11T01:50:45.310Z,43.62
2023-03-11T01:53:14.958Z,43.38
2023-03-11T01:55:42.906Z,43.72
2023-03-11T01:58:14.536Z,43.55
2023-03-11T02:00:42.627Z,43.53
2023-03-11T02:03:17.905Z,44.03
2023-03-11T02:05:47.382Z,43.65
2023-03-11T02:08:14.255Z,43.86
2023-03-11T02:10:42.843Z,44.00
2023-03-11T02:13:10.994Z,43.60
2023-03-11T02:15:40.034Z,43.80
2023-03-11T02:18:08.342Z,43.94
2023-03-11T02:21:25.403Z,44.45
2023-03-11T02:24:14.246Z,44.31
2023-03-11T02:27:09.382Z,44.71
2023-03-11T02:29:37.762Z,44.17
2023-03-11T02:32:08.979Z,44.49
2023-03-11T02:34:40.445Z,44.25
2023-03-11T02:37:10.623Z,44.51
2023-03-11T02:39:44.124Z,44.11
2023-03-11T02:42:15.739Z,44.48
2023-03-11T02:44:46.328Z,44.53
2023-03-11T02:47:13.646Z,44.23
2023-03-11T02:49:40.719Z,44.44
2023-03-11T02:52:07.765Z,44.24
2023-03-11T02:54:34.679Z,44.35
2023-03-11T02:57:01.712Z,44.50
2023-03-11T02:59:28.623Z,44.73
2023-03-11T03:01:56.492Z,44.36
2023-03-11T03:04:23.502Z,44.49
2023-03-11T03:06:50.460Z,44.29
2023-03-11T03:09:17.946Z,44.64
2023-03-11T03:11:44.926Z,44.24
2023-03-11T03:14:11.881Z,44.51
2023-03-11T03:16:39.226Z,44.50
2023-03-11T03:19:06.141Z,44.80
2023-03-11T03:21:33.194Z,44.56
2023-03-11T03:24:00.262Z,44.81
2023-03-11T03:26:27.180Z,44.51
2023-03-11T03:28:54.166Z,44.79
2023-03-11T03:31:21.394Z,44.88
2023-03-11T03:33:48.298Z,44.62
2023-03-11T03:36:16.466Z,44.56
2023-03-11T03:38:47.986Z,44.72
2023-03-11T03:41:18.357Z,45.01
2023-03-11T03:43:45.603Z,44.76
2023-03-11T03:46:13.483Z,44.85
2023-03-11T03:48:44.744Z,45.12
2023-03-11T03:51:16.068Z,45.10
2023-03-11T03:53:55.540Z,45.16
2023-03-11T03:56:25.240Z,45.11
2023-03-11T03:58:53.797Z,45.19
2023-03-11T04:01:22.533Z,45.36
2023-03-11T04:03:49.589Z,45.29
2023-03-11T04:06:19.617Z,45.36
2023-03-11T04:08:52.213Z,45.47
2023-03-11T04:11:21.348Z,45.25
2023-03-11T04:13:48.521Z,44.91
2023-03-11T04:16:20.077Z,45.23
2023-03-11T04:18:48.281Z,45.02
2023-03-11T04:21:15.550Z,45.56
2023-03-11T04:23:42.952Z,45.60
2023-03-11T04:26:11.437Z,45.50
2023-03-11T04:28:38.694Z,45.61
2023-03-11T04:31:05.889Z,45.48
2023-03-11T04:33:34.056Z,45.63
2023-03-11T04:36:05.882Z,45.92
2023-03-11T04:38:34.958Z,45.68
2023-03-11T04:41:03.657Z,46.00
2023-03-11T04:43:31.660Z,45.97
2023-03-11T04:45:58.643Z,45.59
2023-03-11T04:48:27.669Z,45.62
2023-03-11T04:50:55.721Z,45.79
2023-03-11T04:53:24.070Z,45.83
2023-03-11T04:55:52.474Z,45.77
2023-03-11T04:58:20.649Z,45.77
2023-03-11T05:00:48.502Z,45.74
2023-03-11T05:03:15.967Z,46.06
2023-03-11T05:05:43.080Z,45.94
2023-03-11T05:08:10.505Z,46.25
2023-03-11T05:10:37.715Z,46.07
2023-03-11T05:13:06.485Z,46.03
2023-03-11T05:15:37.652Z,46.25
2023-03-11T05:18:06.585Z,45.90
2023-03-11T05:20:35.889Z,46.01
2023-03-11T05:23:03.925Z,45.83
2023-03-11T05:25:33.030Z,45.81
2023-03-11T05:28:00.184Z,46.33
2023-03-11T05:30:27.551Z,46.33
2023-03-11T05:32:56.416Z,45.71
2023-03-11T05:35:24.207Z,45.76
2023-03-11T05:37:51.239Z,45.68
2023-03-11T05:40:19.421Z,46.02
2023-03-11T05:42:47.315Z,45.86
2023-03-11T05:45:16.212Z,46.00
2023-03-11T05:47:45.803Z,45.75
2023-03-11T05:50:14.846Z,45.98
2023-03-11T05:52:44.031Z,46.20
2023-03-11T05:55:12.526Z,46.07
2023-03-11T05:57:41.542Z,45.91
2023-03-11T06:00:12.583Z,45.90
2023-03-11T06:02:47.726Z,45.69
2023-03-11T06:05:17.912Z,45.74
2023-03-11T06:07:47.524Z,45.90
2023-03-11T06:10:14.490Z,45.72
2023-03-11T06:12:42.135Z,46.05
2023-03-11T06:15:17.987Z,45.53
2023-03-11T06:17:45.001Z,45.76
2023-03-11T06:20:12.780Z,45.79
2023-03-11T06:22:40.959Z,45.40
2023-03-11T06:25:09.382Z,45.07
2023-03-11T06:27:37.934Z,45.04
2023-03-11T06:30:07.283Z,45.49
2023-03-11T06:32:40.719Z,45.01
2023-03-11T06:35:08.684Z,44.82
2023-03-11T06:37:39.143Z,45.24
2023-03-11T06:40:08.022Z,44.73
2023-03-11T06:42:35.743Z,44.80
2023-03-11T06:45:04.156Z,44.43
2023-03-11T06:47:31.095Z,44.32
2023-03-11T06:49:58.033Z,43.86
2023-03-11T06:52:27.292Z,43.63
2023-03-11T06:54:55.728Z,43.65
2023-03-11T06:57:22.832Z,43.36
2023-03-11T06:59:52.240Z,43.22
2023-03-11T07:02:19.534Z,43.35
2023-03-11T07:04:49.627Z,42.94
2023-03-11T07:07:18.652Z,42.48
2023-03-11T07:09:45.628Z,41.67
2023-03-11T07:12:15.047Z,41.16
2023-03-11T07:14:42.575Z,41.30
2023-03-11T07:17:09.724Z,41.35
2023-03-11T07:19:43.448Z,41.83
2023-03-11T07:22:10.452Z,42.15
2023-03-11T07:24:37.309Z,42.29
2023-03-11T07:27:04.409Z,42.92
2023-03-11T07:29:31.316Z,43.05
2023-03-11T07:31:58.480Z,43.14
2023-03-11T07:34:25.479Z,43.38
2023-03-11T07:36:52.448Z,42.89
2023-03-11T07:39:20.134Z,43.29
2023-03-11T07:41:47.660Z,42.98
2023-03-11T07:44:16.963Z,43.20
2023-03-11T07:46:44.528Z,43.21
2023-03-11T07:49:11.682Z,43.28
2023-03-11T07:51:41.142Z,42.87
2023-03-11T07:54:08.433Z,42.78
2023-03-11T07:56:35.786Z,42.56
2023-03-11T07:59:04.237Z,42.95
2023-03-11T08:01:36.772Z,42.63
2023-03-11T08:04:05.749Z,42.30
2023-03-11T08:06:34.054Z,42.44
2023-03-11T08:09:03.457Z,42.79
2023-03-11T08:11:31.662Z,42.47
2023-03-11T08:13:59.153Z,42.91
2023-03-11T08:16:27.185Z,42.97
2023-03-11T08:18:54.686Z,42.62
2023-03-11T08:21:25.541Z,42.51
2023-03-11T08:23:53.311Z,42.10
2023-03-11T08:26:24.495Z,41.75
2023-03-11T08:28:51.401Z,41.96
2023-03-11T08:31:21.500Z,41.48
2023-03-11T08:33:52.876Z,41.70
2023-03-11T08:36:21.202Z,41.31
2023-03-11T08:38:48.444Z,41.37
2023-03-11T08:41:15.849Z,41.29
2023-03-11T08:43:44.641Z,41.02
2023-03-11T08:46:22.813Z,40.95
2023-03-11T08:48:49.869Z,41.10
2023-03-11T08:51:17.001Z,40.54
2023-03-11T08:53:43.968Z,41.05
2023-03-11T08:56:11.082Z,40.96
2023-03-11T08:58:38.123Z,40.53
2023-03-11T09:01:06.845Z,40.69
2023-03-11T09:03:35.718Z,39.59
2023-03-11T09:06:06.070Z,35.57
2023-03-11T09:08:33.747Z,33.02
2023-03-11T09:11:00.880Z,30.91
2023-03-11T09:13:28.248Z,28.27
2023-03-11T09:15:55.536Z,26.94
2023-03-11T09:18:22.819Z,25.65
2023-03-11T09:20:50.223Z,24.48
2023-03-11T09:23:18.366Z,24.40
2023-03-11T09:25:45.259Z,23.65
2023-03-11T09:28:12.203Z,23.35
2023-03-11T09:30:39.269Z,22.08
2023-03-11T09:33:06.229Z,21.39
2023-03-11T09:35:33.530Z,21.17
2023-03-11T09:38:00.857Z,19.81
2023-03-11T09:40:42.345Z,20.49
2023-03-11T09:43:17.041Z,21.84
2023-03-11T09:45:59.066Z,22.59
2023-03-11T09:48:44.120Z,22.03
2023-03-11T09:51:22.318Z,23.10
2023-03-11T09:53:55.574Z,24.35
2023-03-11T09:56:23.281Z,25.95
2023-03-11T09:59:00.094Z,26.92
2023-03-11T10:01:45.126Z,27.09
2023-03-11T10:04:18.927Z,26.60
2023-03-11T10:06:47.804Z,26.02
2023-03-11T10:09:33.629Z,24.78
2023-03-11T10:12:11.281Z,23.71
2023-03-11T10:15:06.073Z,23.56
2023-03-11T10:17:42.131Z,23.71
2023-03-11T10:20:13.166Z,23.83
2023-03-11T10:23:08.173Z,24.42
2023-03-11T10:25:49.311Z,25.36
2023-03-11T10:28:18.950Z,25.92
2023-03-11T10:30:45.772Z,26.32
2023-03-11T10:33:28.980Z,26.68
2023-03-11T10:36:03.245Z,27.24
2023-03-11T10:38:46.674Z,27.39
2023-03-11T10:41:20.498Z,28.05
2023-03-11T10:44:13.505Z,27.68
2023-03-11T10:46:40.493Z,27.89
2023-03-11T10:49:25.553Z,27.85
2023-03-11T10:51:55.528Z,27.25
2023-03-11T10:54:44.053Z,25.25
2023-03-11T10:57:20.072Z,23.96
2023-03-11T10:59:50.959Z,22.72
2023-03-11T11:02:28.915Z,21.82
2023-03-11T11:05:27.566Z,20.77
2023-03-11T11:08:17.193Z,20.10
2023-03-11T11:10:52.091Z,20.18
2023-03-11T11:13:22.488Z,20.31
2023-03-11T11:15:55.630Z,20.01
2023-03-11T11:18:49.459Z,20.06
2023-03-11T11:21:38.558Z,20.46
2023-03-11T11:24:35.211Z,20.31
2023-03-11T11:27:26.769Z,20.18
2023-03-11T11:30:15.318Z,19.97
2023-03-11T11:32:42.444Z,20.19
2023-03-11T11:35:17.180Z,20.43
2023-03-11T11:37:47.945Z,21.17
2023-03-11T11:40:14.924Z,21.32
2023-03-11T11:42:49.085Z,22.16
2023-03-11T11:45:37.382Z,22.32
2023-03-11T11:48:31.485Z,23.13
2023-03-11T11:51:02.321Z,23.22
2023-03-11T11:53:44.361Z,24.03
2023-03-11T11:56:11.331Z,24.37
2023-03-11T11:58:41.019Z,24.81
2023-03-11T12:01:14.187Z,24.72
2023-03-11T12:03:50.069Z,25.37
2023-03-11T12:06:39.817Z,26.17
2023-03-11T12:09:11.587Z,26.24
2023-03-11T12:11:49.300Z,26.96
2023-03-11T12:14:35.273Z,27.18
2023-03-11T12:17:05.048Z,27.30
2023-03-11T12:19:54.217Z,27.43
2023-03-11T12:22:42.944Z,27.45
2023-03-11T12:25:34.391Z,27.53
2023-03-11T12:28:12.607Z,27.48
2023-03-11T12:30:45.603Z,27.64
2023-03-11T12:33:31.181Z,27.64
2023-03-11T12:36:00.600Z,27.48
2023-03-11T12:38:39.413Z,27.98
2023-03-11T12:41:31.868Z,28.25
2023-03-11T12:44:01.412Z,28.60
2023-03-11T12:46:54.506Z,29.36
2023-03-11T12:49:27.295Z,29.22
2023-03-11T12:52:13.898Z,29.32
2023-03-11T12:54:49.270Z,29.44
2023-03-11T12:57:16.138Z,29.53
2023-03-11T13:00:19.650Z,30.13
2023-03-11T13:02:55.527Z,29.99
2023-03-11T13:05:37.877Z,30.22
2023-03-11T13:08:17.686Z,30.07
2023-03-11T13:10:46.655Z,29.96
2023-03-11T13:13:23.560Z,30.33
2023-03-11T13:15:51.041Z,30.39
2023-03-11T13:18:30.484Z,30.70
2023-03-11T13:21:01.823Z,30.25
2023-03-11T13:23:34.197Z,30.47
2023-03-11T13:26:09.942Z,30.60
2023-03-11T13:28:45.888Z,30.38
2023-03-11T13:31:47.155Z,30.52
2023-03-11T13:34:38.647Z,30.62
2023-03-11T13:37:36.343Z,30.27
2023-03-11T13:40:14.188Z,30.50
2023-03-11T13:42:50.810Z,29.96
2023-03-11T13:45:30.461Z,29.91
2023-03-11T13:48:01.575Z,30.35
2023-03-11T13:50:35.910Z,30.38
2023-03-11T13:53:08.042Z,30.83
2023-03-11T13:55:40.386Z,30.85
2023-03-11T13:58:20.002Z,30.85
2023-03-11T14:00:50.078Z,31.00
2023-03-11T14:03:23.165Z,31.02
2023-03-11T14:05:57.299Z,31.35
2023-03-11T14:08:31.753Z,31.56
2023-03-11T14:11:03.570Z,31.66
2023-03-11T14:13:50.007Z,31.85
2023-03-11T14:16:43.946Z,31.81
2023-03-11T14:19:16.748Z,31.98
2023-03-11T14:21:46.011Z,31.52
2023-03-11T14:24:23.495Z,31.83
2023-03-11T14:26:58.669Z,31.91
2023-03-11T14:29:33.332Z,32.19
2023-03-11T14:32:00.940Z,32.12
2023-03-11T14:34:30.109Z,32.24
2023-03-11T14:37:02.133Z,32.26
2023-03-11T14:39:31.812Z,32.16
2023-03-11T14:42:04.826Z,32.06
2023-03-11T14:44:35.556Z,32.02
2023-03-11T14:47:22.342Z,31.92
2023-03-11T14:49:50.947Z,31.47
2023-03-11T14:52:25.492Z,31.48
2023-03-11T14:54:54.249Z,31.04
2023-03-11T14:57:33.335Z,30.85
2023-03-11T15:00:00.804Z,30.96
2023-03-11T15:02:45.234Z,30.68
2023-03-11T15:05:22.395Z,30.88
2023-03-11T15:07:56.852Z,30.88
2023-03-11T15:10:23.890Z,30.35
2023-03-11T15:12:50.869Z,30.47
2023-03-11T15:15:26.948Z,30.74
2023-03-11T15:17:56.723Z,30.74
2023-03-11T15:20:35.411Z,30.82
2023-03-11T15:23:05.428Z,30.70
2023-03-11T15:25:35.319Z,30.68
2023-03-11T15:28:25.377Z,30.51
2023-03-11T15:31:38.160Z,30.67
2023-03-11T15:34:18.144Z,30.33
2023-03-11T15:36:47.860Z,30.50
2023-03-11T15:39:26.831Z,30.49
2023-03-11T15:42:13.710Z,30.66
2023-03-11T15:44:52.736Z,30.61
2023-03-11T15:47:23.662Z,30.41
2023-03-11T15:49:51.295Z,30.68
2023-03-11T15:52:22.037Z,30.68
2023-03-11T15:54:55.469Z,30.67
2023-03-11T15:57:26.704Z,30.65
2023-03-11T15:59:56.630Z,32.74
2023-03-11T16:02:26.910Z,35.87
2023-03-11T16:04:55.477Z,37.29
2023-03-11T16:07:38.082Z,38.22
2023-03-11T16:10:08.024Z,38.44
2023-03-11T16:12:35.465Z,38.11
2023-03-11T16:15:02.588Z,38.40
2023-03-11T16:17:43.042Z,40.43
2023-03-11T16:20:15.898Z,41.59
2023-03-11T16:22:42.809Z,41.79
2023-03-11T16:25:26.126Z,42.00
2023-03-11T16:27:56.384Z,43.57
2023-03-11T16:30:25.544Z,42.88
2023-03-11T16:32:52.614Z,43.48
2023-03-11T16:35:20.003Z,43.41
2023-03-11T16:37:47.331Z,43.44
2023-03-11T16:40:26.766Z,44.21
2023-03-11T16:43:14.089Z,44.96
2023-03-11T16:45:41.111Z,44.47
2023-03-11T16:48:08.081Z,45.28
2023-03-11T16:50:37.340Z,44.53
2023-03-11T16:53:05.250Z,43.56
2023-03-11T16:55:32.435Z,43.56
2023-03-11T16:57:59.464Z,43.30
2023-03-11T17:00:27.012Z,43.70
2023-03-11T17:02:54.244Z,45.26
2023-03-11T17:05:21.791Z,44.02
2023-03-11T17:07:52.452Z,44.87
2023-03-11T17:10:19.369Z,44.85
2023-03-11T17:12:46.383Z,45.30
2023-03-11T17:15:13.422Z,44.95
2023-03-11T17:17:40.322Z,45.63
2023-03-11T17:20:09.051Z,45.47
2023-03-11T17:22:36.102Z,46.00
2023-03-11T17:25:03.829Z,47.20
2023-03-11T17:27:32.814Z,46.71
2023-03-11T17:30:01.949Z,46.04
2023-03-11T17:32:29.401Z,45.86
2023-03-11T17:34:56.628Z,46.25
2023-03-11T17:37:23.726Z,47.14
2023-03-11T17:39:50.770Z,47.39
2023-03-11T17:42:17.851Z,48.05
2023-03-11T17:44:51.720Z,48.22
2023-03-11T17:47:20.195Z,49.10
2023-03-11T17:49:49.498Z,48.78
2023-03-11T17:52:16.642Z,47.67
2023-03-11T17:54:44.119Z,48.26
2023-03-11T17:57:11.354Z,47.62
2023-03-11T17:59:38.448Z,48.37
2023-03-11T18:02:05.592Z,49.52
2023-03-11T18:04:32.531Z,49.22
2023-03-11T18:06:59.525Z,49.50
2023-03-11T18:09:26.606Z,49.97
2023-03-11T18:11:54.432Z,49.89
2023-03-11T18:14:21.265Z,50.48
2023-03-11T18:16:48.285Z,50.41
2023-03-11T18:19:15.313Z,50.71
2023-03-11T18:21:42.231Z,51.10
2023-03-11T18:24:09.195Z,51.14
2023-03-11T18:26:36.108Z,51.41
2023-03-11T18:29:03.219Z,51.35
2023-03-11T18:31:31.098Z,51.73
2023-03-11T18:34:01.036Z,51.75
2023-03-11T18:36:33.612Z,52.14
2023-03-11T18:39:01.608Z,52.74
2023-03-11T18:41:31.998Z,52.90
2023-03-11T18:43:59.466Z,52.44
2023-03-11T18:46:29.380Z,52.60
2023-03-11T18:48:57.713Z,52.52
2023-03-11T18:51:28.590Z,53.38
2023-03-11T18:53:55.681Z,52.96
2023-03-11T18:56:22.768Z,52.63
2023-03-11T18:58:49.743Z,52.84
2023-03-11T19:01:19.122Z,53.73
2023-03-11T19:03:54.609Z,53.61
2023-03-11T19:06:23.363Z,53.34
2023-03-11T19:08:51.126Z,53.85
2023-03-11T19:11:20.855Z,52.96
2023-03-11T19:13:48.358Z,53.96
2023-03-11T19:16:18.525Z,53.42
2023-03-11T19:18:46.586Z,53.01
2023-03-11T19:21:15.654Z,53.33
2023-03-11T19:23:43.106Z,52.87
2023-03-11T19:26:10.334Z,53.50
2023-03-11T19:28:37.299Z,53.07
2023-03-11T19:31:05.449Z,53.21
2023-03-11T19:33:32.768Z,53.20
2023-03-11T19:36:01.924Z,53.46
2023-03-11T19:38:29.783Z,53.64
2023-03-11T19:41:07.905Z,53.44
2023-03-11T19:43:35.894Z,53.51
2023-03-11T19:46:07.721Z,54.02
2023-03-11T19:48:35.753Z,53.70
2023-03-11T19:51:02.793Z,53.33
2023-03-11T19:53:30.028Z,53.32
2023-03-11T19:55:58.496Z,53.40
2023-03-11T19:58:30.120Z,53.79
2023-03-11T20:00:58.879Z,53.73
2023-03-11T20:03:26.344Z,53.31
2023-03-11T20:05:56.781Z,53.29
2023-03-11T20:08:25.655Z,53.35
2023-03-11T20:10:53.489Z,53.71
2023-03-11T20:13:22.159Z,53.27
2023-03-11T20:15:49.800Z,53.11
2023-03-11T20:18:18.045Z,52.80
2023-03-11T20:20:45.409Z,52.04
2023-03-11T20:23:12.689Z,52.40
2023-03-11T20:25:41.127Z,51.42
2023-03-11T20:28:08.694Z,51.66
2023-03-11T20:30:38.672Z,51.80
2023-03-11T20:33:06.489Z,51.38
2023-03-11T20:35:34.105Z,51.23
2023-03-11T20:38:02.867Z,51.20
2023-03-11T20:40:30.428Z,51.02
2023-03-11T20:42:57.441Z,50.79
2023-03-11T20:45:24.391Z,50.87
2023-03-11T20:47:53.763Z,51.17
2023-03-11T20:50:21.737Z,51.27
2023-03-11T20:52:48.925Z,51.46
2023-03-11T20:55:16.458Z,50.72
2023-03-11T20:57:43.581Z,51.02
2023-03-11T21:00:12.435Z,51.12
2023-03-11T21:02:41.329Z,50.67
2023-03-11T21:05:09.301Z,51.29
2023-03-11T21:07:36.518Z,51.15
2023-03-11T21:10:09.540Z,50.86
2023-03-11T21:12:36.655Z,50.68
2023-03-11T21:15:04.938Z,50.84
2023-03-11T21:17:33.060Z,50.73
2023-03-11T21:19:59.987Z,51.06
2023-03-11T21:22:27.025Z,50.89
2023-03-11T21:24:55.198Z,51.61
2023-03-11T21:27:26.603Z,51.71
2023-03-11T21:29:57.268Z,51.03
2023-03-11T21:32:26.137Z,50.92
2023-03-11T21:35:00.441Z,50.88
2023-03-11T21:37:32.235Z,50.71
2023-03-11T21:39:59.381Z,51.06
2023-03-11T21:42:30.213Z,50.52
2023-03-11T21:44:57.429Z,50.07
2023-03-11T21:47:24.459Z,49.84
2023-03-11T21:49:51.483Z,50.26
2023-03-11T21:52:18.484Z,50.47
2023-03-11T21:54:45.429Z,49.70
2023-03-11T21:57:12.629Z,49.54
2023-03-11T21:59:39.590Z,49.93
2023-03-11T22:02:06.790Z,49.79
2023-03-11T22:04:33.793Z,49.91
2023-03-11T22:07:00.911Z,49.51
2023-03-11T22:09:28.048Z,49.51
2023-03-11T22:11:56.331Z,49.36
2023-03-11T22:14:24.132Z,49.44
2023-03-11T22:16:51.605Z,50.12
2023-03-11T22:19:18.661Z,49.74
2023-03-11T22:21:45.586Z,49.49
2023-03-11T22:24:12.445Z,49.38
2023-03-11T22:26:39.438Z,48.98
2023-03-11T22:29:08.850Z,49.00
2023-03-11T22:31:36.417Z,48.91
2023-03-11T22:34:03.362Z,48.59
2023-03-11T22:36:30.264Z,48.90
2023-03-11T22:38:57.186Z,48.71
2023-03-11T22:41:24.269Z,49.01
2023-03-11T22:43:51.227Z,48.32
2023-03-11T22:46:18.298Z,48.18
2023-03-11T22:48:45.219Z,48.77
2023-03-11T22:51:13.066Z,48.17
2023-03-11T22:53:40.137Z,48.44
2023-03-11T22:56:12.094Z,48.65
2023-03-11T22:58:39.894Z,48.44
2023-03-11T23:01:07.044Z,48.44
2023-03-11T23:03:35.378Z,48.80
2023-03-11T23:06:05.741Z,48.65
2023-03-11T23:08:33.173Z,48.63
2023-03-11T23:11:06.024Z,48.95
2023-03-11T23:13:35.623Z,48.50
2023-03-11T23:16:08.628Z,48.50
2023-03-11T23:18:36.468Z,48.96
2023-03-11T23:21:04.225Z,48.62
2023-03-11T23:23:31.436Z,48.94
2023-03-11T23:25:58.345Z,48.74
2023-03-11T23:28:25.262Z,49.58
2023-03-11T23:30:52.305Z,49.15
2023-03-11T23:33:19.277Z,48.97
2023-03-11T23:35:46.198Z,49.06
2023-03-11T23:38:13.120Z,49.09
2023-03-11T23:40:41.017Z,48.88
2023-03-11T23:43:07.912Z,48.79
2023-03-11T23:45:34.830Z,48.64
2023-03-11T23:48:01.950Z,48.67
2023-03-11T23:50:28.781Z,48.96
2023-03-11T23:52:55.709Z,48.74
2023-03-11T23:55:22.586Z,48.59
2023-03-11T23:57:49.521Z,49.06
